Schneifelwetter: Wetterstation Hallschlag, 537 m . NN
Wetterdaten: Donnerstag, 15.07.2010
Datum Zeit Temp. A. Feuchte A. Luftdruck Regen Wind Richtung Richtung Sonnenschein Helligkeit T Regen Taupunkt Windchill
15.07.2010 00:00 15,1 C 89 % 1008 hPa 0,0 l/m 21,4 km/h (4 Bft) S-SW45 205 0 min 0 lux 0,00 min 13,3 C 9,5 C
15.07.2010 00:15 15,0 C 89 % 1009 hPa 0,0 l/m 25,8 km/h (4 Bft) S-SW45 210 0 min 0 lux 0,00 min 13,2 C 8,4 C
15.07.2010 00:30 14,7 C 89 % 1009 hPa 0,0 l/m 16,1 km/h (3 Bft) S-SW45 195 0 min 0 lux 0,00 min 12,9 C 10,5 C
15.07.2010 00:45 14,6 C 90 % 1009 hPa 0,0 l/m 18,7 km/h (3 Bft) S-SW22.5 210 0 min 0 lux 0,00 min 13,0 C 9,6 C
15.07.2010 00:44 14,6 C 90 % 1009 hPa 0,0 l/m 18,7 km/h (3 Bft) S-SW22.5 210 0 min 0 lux 0,00 min 13,0 C 9,6 C
15.07.2010 01:00 14,8 C 91 % 1009 hPa 0,0 l/m 29,3 km/h (5 Bft) SW22.5 215 0 min 0 lux 0,00 min 13,3 C 7,5 C
15.07.2010 01:15 14,9 C 90 % 1009 hPa 0,0 l/m 38,1 km/h (5 Bft) SW45 225 0 min 0 lux 0,00 min 13,3 C 6,4 C
15.07.2010 01:30 14,8 C 90 % 1009 hPa 0,0 l/m 34,3 km/h (5 Bft) SW45 215 0 min 0 lux 0,00 min 13,2 C 6,7 C
15.07.2010 01:45 14,8 C 89 % 1009 hPa 0,0 l/m 32,7 km/h (5 Bft) SW45 215 0 min 0 lux 0,00 min 13,0 C 7,0 C
15.07.2010 02:00 14,8 C 90 % 1009 hPa 0,0 l/m 29,6 km/h (5 Bft) SW45 220 0 min 0 lux 0,00 min 13,2 C 7,5 C
15.07.2010 02:15 14,8 C 90 % 1010 hPa 0,0 l/m 30,1 km/h (5 Bft) SW45 215 0 min 0 lux 0,00 min 13,2 C 7,4 C
15.07.2010 02:29 14,8 C 90 % 1009 hPa 0,0 l/m 32,7 km/h (5 Bft) SW45 230 0 min 0 lux 0,00 min 13,2 C 7,0 C
15.07.2010 02:45 14,8 C 89 % 1010 hPa 0,0 l/m 26,1 km/h (4 Bft) W-SW45 245 0 min 0 lux 0,00 min 13,0 C 8,1 C
15.07.2010 03:00 14,8 C 90 % 1010 hPa 0,0 l/m 27,1 km/h (4 Bft) W-SW45 240 0 min 0 lux 0,00 min 13,2 C 7,9 C
15.07.2010 03:15 14,7 C 89 % 1010 hPa 0,0 l/m 27,1 km/h (4 Bft) SW45 230 0 min 0 lux 0,00 min 12,9 C 7,8 C
15.07.2010 03:30 14,5 C 89 % 1010 hPa 0,0 l/m 21,5 km/h (4 Bft) SW22.5 235 0 min 0 lux 0,00 min 12,7 C 8,7 C
15.07.2010 03:45 14,4 C 90 % 1010 hPa 0,0 l/m 28,1 km/h (4 Bft) SW67.5 220 0 min 0 lux 0,00 min 12,8 C 7,2 C
15.07.2010 04:00 14,2 C 90 % 1010 hPa 0,0 l/m 25,5 km/h (4 Bft) SW45 230 0 min 0 lux 0,00 min 12,6 C 7,4 C
15.07.2010 04:15 14,4 C 91 % 1010 hPa 0,0 l/m 27,6 km/h (4 Bft) S-SW45 210 0 min 0 lux 0,00 min 12,9 C 7,3 C
15.07.2010 04:30 14,3 C 90 % 1010 hPa 0,0 l/m 33,9 km/h (5 Bft) SW45 215 0 min 0 lux 0,00 min 12,7 C 6,1 C
15.07.2010 04:45 14,2 C 89 % 1011 hPa 0,0 l/m 28,0 km/h (4 Bft) SW67.5 220 0 min 0 lux 0,00 min 12,4 C 6,9 C
15.07.2010 05:00 14,1 C 89 % 1011 hPa 0,0 l/m 26,5 km/h (4 Bft) SW45 215 0 min 0 lux 0,00 min 12,3 C 7,1 C
15.07.2010 05:15 14,0 C 90 % 1011 hPa 0,0 l/m 18,5 km/h (3 Bft) S-SW22.5 210 0 min 0 lux 0,00 min 12,4 C 8,9 C
15.07.2010 05:30 14,0 C 89 % 1011 hPa 0,0 l/m 33,3 km/h (5 Bft) S-SW45 205 0 min 133 lux 0,00 min 12,2 C 5,7 C
15.07.2010 05:45 14,0 C 90 % 1011 hPa 0,0 l/m 30,0 km/h (5 Bft) SW67.5 220 0 min 480 lux 0,00 min 12,4 C 6,3 C
15.07.2010 06:00 14,0 C 89 % 1011 hPa 0,0 l/m 34,4 km/h (5 Bft) SW45 230 0 min 1,07 klux 0,00 min 12,2 C 5,6 C
15.07.2010 06:15 14,0 C 88 % 1011 hPa 0,0 l/m 28,8 km/h (4 Bft) SW45 225 0 min 5,50 klux 0,00 min 12,0 C 6,5 C
15.07.2010 06:30 14,0 C 88 % 1011 hPa 0,0 l/m 30,5 km/h (5 Bft) SW45 225 0 min 10,0 klux 0,00 min 12,0 C 6,2 C
15.07.2010 06:45 14,2 C 88 % 1011 hPa 0,0 l/m 25,8 km/h (4 Bft) SW45 215 0 min 17,0 klux 0,00 min 12,2 C 7,4 C
15.07.2010 07:00 14,2 C 86 % 1011 hPa 0,0 l/m 33,9 km/h (5 Bft) SW45 215 0 min 19,0 klux 0,00 min 11,9 C 5,9 C
15.07.2010 07:15 14,4 C 85 % 1012 hPa 0,0 l/m 26,1 km/h (4 Bft) SW45 225 0 min 28,3 klux 0,00 min 11,9 C 7,6 C
15.07.2010 07:29 14,6 C 84 % 1012 hPa 0,0 l/m 33,2 km/h (5 Bft) W-SW45 240 0 min 22,5 klux 0,00 min 11,9 C 6,6 C
15.07.2010 07:45 14,8 C 84 % 1012 hPa 0,0 l/m 26,1 km/h (4 Bft) SW67.5 230 0 min 33,3 klux 0,00 min 12,1 C 8,1 C
15.07.2010 08:00 15,0 C 79 % 1012 hPa 0,0 l/m 47,1 km/h (6 Bft) W-SW67.5 250 0 min 36,3 klux 0,00 min 11,4 C 5,6 C
15.07.2010 08:15 14,9 C 79 % 1012 hPa 0,0 l/m 37,7 km/h (5 Bft) W-SW67.5 240 0 min 40,8 klux 0,00 min 11,3 C 6,4 C
15.07.2010 08:30 15,4 C 78 % 1012 hPa 0,0 l/m 40,5 km/h (6 Bft) W-SW45 240 0 min 50,6 klux 0,00 min 11,6 C 6,8 C
15.07.2010 08:45 16,0 C 75 % 1013 hPa 0,0 l/m 35,6 km/h (5 Bft) SW45 230 15 min 54,5 klux 0,00 min 11,6 C 8,3 C
15.07.2010 09:00 16,4 C 73 % 1013 hPa 0,0 l/m 37,8 km/h (5 Bft) W-SW67.5 240 15 min 55,8 klux 0,00 min 11,5 C 8,6 C
15.07.2010 09:15 16,4 C 73 % 1013 hPa 0,0 l/m 38,6 km/h (5 Bft) W-SW67.5 250 15 min 67,5 klux 0,00 min 11,5 C 8,5 C
15.07.2010 09:30 16,8 C 68 % 1013 hPa 0,0 l/m 36,9 km/h (5 Bft) W-SW45 245 15 min 70,1 klux 0,00 min 10,9 C 9,3 C
15.07.2010 09:45 16,0 C 69 % 1013 hPa 0,0 l/m 36,8 km/h (5 Bft) W-SW45 240 0 min 43,1 klux 0,00 min 10,3 C 8,2 C
15.07.2010 10:00 15,8 C 70 % 1013 hPa 0,0 l/m 35,6 km/h (5 Bft) W-SW67.5 250 15 min 66,9 klux 0,00 min 10,3 C 8,0 C
15.07.2010 10:15 16,1 C 70 % 1013 hPa 0,0 l/m 41,0 km/h (6 Bft) SW45 225 15 min 72,2 klux 0,00 min 10,6 C 7,8 C
15.07.2010 10:30 16,6 C 68 % 1013 hPa 0,0 l/m 33,6 km/h (5 Bft) W-SW45 250 15 min 80,0 klux 0,00 min 10,7 C 9,4 C
15.07.2010 10:44 18,5 C 63 % 1013 hPa 0,0 l/m 46,9 km/h (6 Bft) SW45 230 14 min 84,8 klux 0,00 min 11,3 C 10,9 C
15.07.2010 11:00 19,6 C 59 % 1013 hPa 0,0 l/m 36,1 km/h (5 Bft) S-SW67.5 205 16 min 92,3 klux 0,00 min 11,4 C 13,5 C
15.07.2010 11:15 20,7 C 56 % 1013 hPa 0,0 l/m 33,5 km/h (5 Bft) S-SW67.5 210 15 min 93,4 klux 0,00 min 11,6 C 15,3 C
15.07.2010 11:30 19,5 C 56 % 1013 hPa 0,0 l/m 39,2 km/h (6 Bft) W-SW45 240 15 min 72,7 klux 0,00 min 10,5 C 13,1 C
15.07.2010 11:45 18,8 C 58 % 1013 hPa 0,0 l/m 40,6 km/h (6 Bft) W-SW67.5 245 15 min 93,7 klux 0,00 min 10,4 C 11,9 C
15.07.2010 12:00 18,3 C 57 % 1014 hPa 0,0 l/m 39,3 km/h (6 Bft) W-SW45 250 15 min 97,8 klux 0,00 min 9,6 C 11,3 C
15.07.2010 12:15 18,7 C 57 % 1014 hPa 0,0 l/m 41,0 km/h (6 Bft) W-SW45 250 15 min 100 klux 0,00 min 10,0 C 11,7 C
15.07.2010 12:29 18,4 C 57 % 1014 hPa 0,0 l/m 37,3 km/h (5 Bft) W-SW67.5 240 14 min 61,8 klux 0,00 min 9,7 C 11,6 C
15.07.2010 12:45 19,3 C 55 % 1014 hPa 0,0 l/m 34,1 km/h (5 Bft) W-SW45 250 16 min 99 klux 0,00 min 10,0 C 13,3 C
15.07.2010 13:00 19,2 C 57 % 1014 hPa 0,0 l/m 38,3 km/h (5 Bft) W-SW45 250 15 min 102 klux 0,00 min 10,5 C 12,7 C
15.07.2010 13:15 20,5 C 53 % 1014 hPa 0,0 l/m 35,0 km/h (5 Bft) SW45 235 15 min 108 klux 0,00 min 10,6 C 14,9 C
15.07.2010 13:30 21,0 C 50 % 1014 hPa 0,0 l/m 39,3 km/h (6 Bft) S-SW67.5 210 15 min 110 klux 0,00 min 10,2 C 15,3 C
15.07.2010 13:45 21,5 C 47 % 1014 hPa 0,0 l/m 40,7 km/h (6 Bft) S-SW45 210 15 min 116 klux 0,00 min 9,7 C 15,9 C
15.07.2010 14:00 20,6 C 50 % 1014 hPa 0,0 l/m 37,3 km/h (5 Bft) W-SW45 240 15 min 106 klux 0,00 min 9,8 C 14,8 C
15.07.2010 14:15 21,0 C 50 % 1014 hPa 0,0 l/m 40,3 km/h (6 Bft) SW67.5 235 15 min 103 klux 0,00 min 10,2 C 15,2 C
15.07.2010 14:30 21,0 C 48 % 1014 hPa 0,0 l/m 44,7 km/h (6 Bft) SW45 225 15 min 112 klux 0,00 min 9,6 C 14,9 C
15.07.2010 14:45 21,2 C 47 % 1014 hPa 0,0 l/m 34,7 km/h (5 Bft) W-SW67.5 255 15 min 108 klux 0,00 min 9,4 C 15,9 C
15.07.2010 15:00 20,8 C 48 % 1014 hPa 0,0 l/m 46,8 km/h (6 Bft) SW45 230 15 min 104 klux 0,00 min 9,4 C 14,4 C
15.07.2010 15:15 21,2 C 44 % 1014 hPa 0,0 l/m 41,5 km/h (6 Bft) SW45 225 15 min 99 klux 0,00 min 8,5 C 15,4 C
15.07.2010 15:30 20,8 C 45 % 1014 hPa 0,0 l/m 40,7 km/h (6 Bft) W-SW45 245 15 min 96,9 klux 0,00 min 8,4 C 14,9 C
15.07.2010 15:44 21,5 C 47 % 1014 hPa 0,0 l/m 39,7 km/h (6 Bft) W-SW22.5 245 14 min 103 klux 0,00 min 9,7 C 16,0 C
15.07.2010 16:00 21,2 C 45 % 1014 hPa 0,0 l/m 31,6 km/h (5 Bft) SW67.5 230 16 min 92,7 klux 0,00 min 8,8 C 16,2 C
15.07.2010 16:15 20,5 C 46 % 1015 hPa 0,0 l/m 30,2 km/h (5 Bft) W-SW67.5 245 15 min 96,7 klux 0,00 min 8,5 C 15,4 C
15.07.2010 16:30 20,4 C 47 % 1015 hPa 0,0 l/m 35,7 km/h (5 Bft) SW67.5 230 15 min 77,2 klux 0,00 min 8,7 C 14,7 C
15.07.2010 16:45 20,6 C 48 % 1014 hPa 0,0 l/m 30,3 km/h (5 Bft) S-SW45 205 15 min 87,2 klux 0,00 min 9,2 C 15,5 C
15.07.2010 17:00 21,0 C 47 % 1014 hPa 0,0 l/m 28,9 km/h (5 Bft) W-SW45 245 15 min 82,0 klux 0,00 min 9,3 C 16,2 C
15.07.2010 17:15 21,2 C 48 % 1014 hPa 0,0 l/m 36,3 km/h (5 Bft) SW45 225 15 min 82,3 klux 0,00 min 9,7 C 15,8 C
15.07.2010 17:29 21,0 C 46 % 1014 hPa 0,0 l/m 34,9 km/h (5 Bft) W45 260 14 min 76,4 klux 0,00 min 8,9 C 15,6 C
15.07.2010 17:45 20,8 C 47 % 1015 hPa 0,0 l/m 32,9 km/h (5 Bft) W-SW67.5 250 16 min 69,1 klux 0,00 min 9,1 C 15,5 C
15.07.2010 18:00 20,8 C 46 % 1014 hPa 0,0 l/m 32,4 km/h (5 Bft) SW45 230 15 min 68,9 klux 0,00 min 8,8 C 15,6 C
15.07.2010 18:15 20,4 C 46 % 1014 hPa 0,0 l/m 27,7 km/h (4 Bft) W45 260 0 min 49,2 klux 0,00 min 8,4 C 15,6 C
15.07.2010 18:30 20,5 C 46 % 1014 hPa 0,0 l/m 27,3 km/h (4 Bft) W-SW45 255 15 min 62,5 klux 0,00 min 8,5 C 15,8 C
15.07.2010 18:45 19,9 C 47 % 1014 hPa 0,0 l/m 26,1 km/h (4 Bft) W-SW67.5 245 0 min 42,8 klux 0,00 min 8,3 C 15,1 C
15.07.2010 19:00 19,9 C 46 % 1014 hPa 0,0 l/m 31,3 km/h (5 Bft) W-SW67.5 240 0 min 46,7 klux 0,00 min 7,9 C 14,4 C
15.07.2010 19:15 20,6 C 45 % 1014 hPa 0,0 l/m 35,8 km/h (5 Bft) W-SW45 240 0 min 44,5 klux 0,00 min 8,2 C 15,0 C
15.07.2010 19:30 21,4 C 44 % 1014 hPa 0,0 l/m 33,5 km/h (5 Bft) W45 260 0 min 43,6 klux 0,00 min 8,6 C 16,3 C
15.07.2010 19:45 20,8 C 45 % 1015 hPa 0,0 l/m 31,2 km/h (5 Bft) W-SW45 240 0 min 37,7 klux 0,00 min 8,4 C 15,7 C
15.07.2010 20:00 19,3 C 47 % 1015 hPa 0,0 l/m 17,8 km/h (3 Bft) W-SW45 240 0 min 8,72 klux 0,00 min 7,7 C 15,8 C
15.07.2010 20:15 18,4 C 49 % 1015 hPa 0,0 l/m 11,6 km/h (2 Bft) SW22.5 225 0 min 20,3 klux 0,00 min 7,5 C 16,3 C
15.07.2010 20:30 17,6 C 52 % 1015 hPa 0,0 l/m 12,6 km/h (3 Bft) SW22.5 235 0 min 18,7 klux 0,00 min 7,6 C 15,1 C
15.07.2010 20:44 17,1 C 54 % 1015 hPa 0,0 l/m 14,4 km/h (3 Bft) SW22.5 230 0 min 13,5 klux 0,00 min 7,7 C 13,9 C
15.07.2010 21:00 16,6 C 56 % 1015 hPa 0,0 l/m 12,6 km/h (3 Bft) SW22.5 215 0 min 5,05 klux 0,00 min 7,8 C 13,9 C
15.07.2010 21:15 16,3 C 56 % 1015 hPa 0,0 l/m 11,8 km/h (2 Bft) SW45 230 0 min 3,62 klux 0,00 min 7,5 C 13,8 C
15.07.2010 21:30 15,7 C 58 % 1015 hPa 0,0 l/m 10,2 km/h (2 Bft) S-SW22.5 210 0 min 2,23 klux 0,00 min 7,5 C 13,8 C
15.07.2010 21:45 15,0 C 59 % 1015 hPa 0,0 l/m 8,2 km/h (2 Bft) S-SW 210 0 min 1,03 klux 0,00 min 7,1 C 14,0 C
15.07.2010 22:00 14,4 C 60 % 1015 hPa 0,0 l/m 8,0 km/h (2 Bft) S-SW 200 0 min 405 lux 0,00 min 6,7 C 13,5 C
15.07.2010 22:15 14,1 C 62 % 1015 hPa 0,0 l/m 9,8 km/h (2 Bft) S-SW22.5 200 0 min 78 lux 0,00 min 6,9 C 12,2 C
15.07.2010 22:29 13,7 C 62 % 1015 hPa 0,0 l/m 8,7 km/h (2 Bft) S-SW 195 0 min 10 lux 0,00 min 6,6 C 12,3 C
15.07.2010 22:45 12,8 C 63 % 1015 hPa 0,0 l/m 0,3 km/h (0 Bft) S-SW 205 0 min 0 lux 0,00 min 5,9 C 12,8 C
15.07.2010 23:00 12,3 C 65 % 1015 hPa 0,0 l/m 5,0 km/h (1 Bft) S-SW 205 0 min 0 lux 0,00 min 5,9 C 12,3 C
15.07.2010 23:15 11,9 C 67 % 1015 hPa 0,0 l/m 0,0 km/h (0 Bft) S-SW 205 0 min 0 lux 0,00 min 6,0 C 11,9 C
15.07.2010 23:30 11,6 C 69 % 1015 hPa 0,0 l/m 0,0 km/h (0 Bft) S-SW 205 0 min 0 lux 0,00 min 6,1 C 11,6 C
15.07.2010 23:45 11,2 C 70 % 1015 hPa 0,0 l/m 0,0 km/h (0 Bft) S-SW 205 0 min 0 lux 0,00 min 5,9 C 11,2 C
15.07.2010 23:59 10,7 C 71 % 1015 hPa 0,0 l/m 0,0 km/h (0 Bft) S-SW 205 0 min 0 lux 0,00 min 5,7 C 10,7 C
_ Min-Zeit 23:59 15:15 00:00 - 23:15 - - - - - 23:59 06:00
Minimum _ 10,7 C 44 % 1008 hPa - 0,0 km/h (0 Bft) - - - - - 5,7 C 5,6 C
_ Max-Zeit 13:45 01:00 16:15 00:00 08:00 - - 11:00 13:45 00:00 01:00 19:30
Maximum _ 21,5 C 91 % 1015 hPa 0,0 l/m 47,1 km/h
W-SW (6 Bft)
- - 16 min 116 klux 0,00 min 13,3 C 16,3 C
Durchschnitt _ 16,9 C 67 % 1013 hPa #0,0 l/m 28,6 km/h (4 Bft) SW - #9:30 h 40,5 klux #0 min. 10,3 C 11,2 C